sensor_id;sensor_type;location;lat;lon;timestamp;pressure;altitude;pressure_sealevel;temperature;humidity
22775;BME280;11554;51.106;3.684;2023-08-07T00:00:00;101677.0;;;11.23;100.0
22775;BME280;11554;51.106;3.684;2023-08-07T00:05:00;101674.06;;;11.17;100.0
22775;BME280;11554;51.106;3.684;2023-08-07T00:10:00;101674.85;;;11.13;100.0
22775;BME280;11554;51.106;3.684;2023-08-07T00:15:00;101672.73;;;11.12;100.0
22775;BME280;11554;51.106;3.684;2023-08-07T00:20:00;101671.42;;;11.13;100.0
22775;BME280;11554;51.106;3.684;2023-08-07T00:25:00;101670.51;;;11.12;100.0
22775;BME280;11554;51.106;3.684;2023-08-07T00:30:00;101672.47;;;11.10;100.0
22775;BME280;11554;51.106;3.684;2023-08-07T00:35:00;101678.25;;;10.95;100.0
22775;BME280;11554;51.106;3.684;2023-08-07T00:40:00;101675.15;;;10.92;100.0
22775;BME280;11554;51.106;3.684;2023-08-07T00:45:00;101676.84000000001;;;10.86;100.0
22775;BME280;11554;51.106;3.684;2023-08-07T00:50:00;101678.41;;;10.78;100.0
22775;BME280;11554;51.106;3.684;2023-08-07T00:55:00;101679.6;;;10.70;100.0
22775;BME280;11554;51.106;3.684;2023-08-07T01:00:00;101679.72;;;10.65;100.0
22775;BME280;11554;51.106;3.684;2023-08-07T01:05:00;101680.12999999999;;;10.57;100.0
22775;BME280;11554;51.106;3.684;2023-08-07T01:10:00;101680.94;;;10.53;100.0
22775;BME280;11554;51.106;3.684;2023-08-07T01:15:02;101687.01;;;10.48;100.0
22775;BME280;11554;51.106;3.684;2023-08-07T01:20:00;101691.44;;;10.43;100.0
22775;BME280;11554;51.106;3.684;2023-08-07T01:25:00;101694.53;;;10.40;100.0
22775;BME280;11554;51.106;3.684;2023-08-07T01:30:05;101696.06;;;10.31;100.0
22775;BME280;11554;51.106;3.684;2023-08-07T01:35:00;101693.76999999999;;;10.28;100.0
22775;BME280;11554;51.106;3.684;2023-08-07T01:40:00;101693.73000000001;;;10.25;100.0
22775;BME280;11554;51.106;3.684;2023-08-07T01:45:00;101688.39;;;10.20;100.0
22775;BME280;11554;51.106;3.684;2023-08-07T01:50:00;101691.42;;;10.11;100.0
22775;BME280;11554;51.106;3.684;2023-08-07T01:55:00;101699.01999999999;;;10.02;100.0
22775;BME280;11554;51.106;3.684;2023-08-07T02:00:00;101698.38;;;9.98;100.0
22775;BME280;11554;51.106;3.684;2023-08-07T02:05:00;101701.22;;;9.96;100.0
22775;BME280;11554;51.106;3.684;2023-08-07T02:10:00;101708.86;;;9.90;100.0
22775;BME280;11554;51.106;3.684;2023-08-07T02:15:00;101703.0;;;9.94;100.0
22775;BME280;11554;51.106;3.684;2023-08-07T02:20:00;101701.39;;;9.98;100.0
22775;BME280;11554;51.106;3.684;2023-08-07T02:25:00;101697.34;;;10.06;100.0
22775;BME280;11554;51.106;3.684;2023-08-07T02:30:00;101694.22;;;10.16;100.0
22775;BME280;11554;51.106;3.684;2023-08-07T02:35:00;101692.53;;;10.27;100.0
22775;BME280;11554;51.106;3.684;2023-08-07T02:40:00;101692.69;;;10.37;100.0
22775;BME280;11554;51.106;3.684;2023-08-07T02:45:00;101686.55;;;10.47;100.0
22775;BME280;11554;51.106;3.684;2023-08-07T02:50:00;101689.20000000001;;;10.40;100.0
22775;BME280;11554;51.106;3.684;2023-08-07T02:55:00;101690.35;;;10.31;100.0
22775;BME280;11554;51.106;3.684;2023-08-07T03:00:00;101690.41;;;10.26;100.0
22775;BME280;11554;51.106;3.684;2023-08-07T03:05:00;101690.08;;;10.16;100.0
22775;BME280;11554;51.106;3.684;2023-08-07T03:10:00;101688.45;;;10.11;100.0
22775;BME280;11554;51.106;3.684;2023-08-07T03:15:00;101688.43000000001;;;10.05;100.0
22775;BME280;11554;51.106;3.684;2023-08-07T03:20:00;101682.26;;;9.93;100.0
22775;BME280;11554;51.106;3.684;2023-08-07T03:25:00;101689.08;;;9.90;100.0
22775;BME280;11554;51.106;3.684;2023-08-07T03:30:00;101697.0;;;9.83;100.0
22775;BME280;11554;51.106;3.684;2023-08-07T03:35:00;101690.95;;;9.82;100.0
22775;BME280;11554;51.106;3.684;2023-08-07T03:40:00;101691.94;;;9.75;100.0
22775;BME280;11554;51.106;3.684;2023-08-07T03:45:00;101696.48999999999;;;9.73;100.0
22775;BME280;11554;51.106;3.684;2023-08-07T03:50:00;101698.28;;;9.73;100.0
22775;BME280;11554;51.106;3.684;2023-08-07T03:55:00;101697.68000000001;;;9.75;100.0
22775;BME280;11554;51.106;3.684;2023-08-07T04:00:00;101701.06;;;9.79;100.0
22775;BME280;11554;51.106;3.684;2023-08-07T04:05:00;101701.4;;;9.75;100.0
22775;BME280;11554;51.106;3.684;2023-08-07T04:10:00;101705.94;;;9.71;100.0
22775;BME280;11554;51.106;3.684;2023-08-07T04:15:00;101707.64;;;9.72;100.0
22775;BME280;11554;51.106;3.684;2023-08-07T04:20:00;101708.7;;;9.71;100.0
22775;BME280;11554;51.106;3.684;2023-08-07T04:25:00;101711.25;;;9.71;100.0
22775;BME280;11554;51.106;3.684;2023-08-07T04:30:00;101715.84;;;9.74;100.0
22775;BME280;11554;51.106;3.684;2023-08-07T04:35:00;101719.87000000001;;;9.78;100.0
22775;BME280;11554;51.106;3.684;2023-08-07T04:40:00;101726.14;;;9.83;100.0
22775;BME280;11554;51.106;3.684;2023-08-07T04:45:00;101732.93;;;9.86;100.0
22775;BME280;11554;51.106;3.684;2023-08-07T04:50:00;101738.72;;;9.92;100.0
22775;BME280;11554;51.106;3.684;2023-08-07T04:55:00;101736.19;;;10.00;100.0
22775;BME280;11554;51.106;3.684;2023-08-07T05:00:00;101735.72;;;10.12;100.0
22775;BME280;11554;51.106;3.684;2023-08-07T05:05:00;101727.06;;;10.26;100.0
22775;BME280;11554;51.106;3.684;2023-08-07T05:10:01;101722.55;;;10.49;100.0
22775;BME280;11554;51.106;3.684;2023-08-07T05:15:00;101732.98;;;10.68;100.0
22775;BME280;11554;51.106;3.684;2023-08-07T05:20:00;101744.72;;;11.05;100.0
22775;BME280;11554;51.106;3.684;2023-08-07T05:25:00;101748.03;;;11.34;100.0
22775;BME280;11554;51.106;3.684;2023-08-07T05:30:00;101746.56;;;11.72;100.0
22775;BME280;11554;51.106;3.684;2023-08-07T05:35:00;101745.65;;;12.18;100.0
22775;BME280;11554;51.106;3.684;2023-08-07T05:40:01;101741.24;;;12.58;100.0
22775;BME280;11554;51.106;3.684;2023-08-07T05:45:00;101743.91;;;13.44;100.0
22775;BME280;11554;51.106;3.684;2023-08-07T05:50:00;101744.55;;;14.37;100.0
22775;BME280;11554;51.106;3.684;2023-08-07T05:55:00;101752.11;;;15.36;100.0
22775;BME280;11554;51.106;3.684;2023-08-07T06:00:00;101750.66;;;16.30;100.0
22775;BME280;11554;51.106;3.684;2023-08-07T06:05:00;101753.03;;;17.19;100.0
22775;BME280;11554;51.106;3.684;2023-08-07T06:10:00;101748.17;;;17.97;100.0
22775;BME280;11554;51.106;3.684;2023-08-07T06:15:00;101753.7;;;18.89;100.0
22775;BME280;11554;51.106;3.684;2023-08-07T06:20:00;101756.65000000001;;;19.34;98.98
22775;BME280;11554;51.106;3.684;2023-08-07T06:25:00;101757.01000000001;;;19.52;94.27
22775;BME280;11554;51.106;3.684;2023-08-07T06:30:00;101763.7;;;20.16;90.51
22775;BME280;11554;51.106;3.684;2023-08-07T06:35:00;101759.72;;;20.55;87.25
22775;BME280;11554;51.106;3.684;2023-08-07T06:40:00;101757.73000000001;;;20.52;87.22
22775;BME280;11554;51.106;3.684;2023-08-07T06:45:00;101762.51;;;21.03;84.99
22775;BME280;11554;51.106;3.684;2023-08-07T06:50:00;101764.64;;;20.99;80.64
22775;BME280;11554;51.106;3.684;2023-08-07T06:55:00;101767.90999999999;;;21.19;82.79
22775;BME280;11554;51.106;3.684;2023-08-07T07:00:00;101759.52;;;21.85;81.22
22775;BME280;11554;51.106;3.684;2023-08-07T07:05:00;101765.25;;;21.96;81.27
22775;BME280;11554;51.106;3.684;2023-08-07T07:10:00;101767.58;;;21.83;78.9
22775;BME280;11554;51.106;3.684;2023-08-07T07:15:00;101772.86;;;22.38;80.33
22775;BME280;11554;51.106;3.684;2023-08-07T07:20:00;101773.49;;;22.61;75.74
22775;BME280;11554;51.106;3.684;2023-08-07T07:25:00;101774.26000000001;;;22.60;78.7
22775;BME280;11554;51.106;3.684;2023-08-07T07:30:00;101778.86;;;23.10;77.47
22775;BME280;11554;51.106;3.684;2023-08-07T07:35:00;101784.86;;;23.64;75.54
22775;BME280;11554;51.106;3.684;2023-08-07T07:40:00;101783.37;;;23.31;75.41
22775;BME280;11554;51.106;3.684;2023-08-07T07:45:00;101797.58;;;22.57;71.86
22775;BME280;11554;51.106;3.684;2023-08-07T07:50:04;101791.37;;;21.74;75.94
22775;BME280;11554;51.106;3.684;2023-08-07T07:55:00;101796.22;;;21.38;75.69
22775;BME280;11554;51.106;3.684;2023-08-07T16:20:00;101810.31;;;23.57;68.16
22775;BME280;11554;51.106;3.684;2023-08-07T16:25:00;101812.75;;;23.40;68.5
22775;BME280;11554;51.106;3.684;2023-08-07T16:30:01;101802.95999999999;;;23.42;65.76
22775;BME280;11554;51.106;3.684;2023-08-07T16:35:00;101802.91;;;23.39;65.32
22775;BME280;11554;51.106;3.684;2023-08-07T16:40:00;101806.7;;;23.28;65.98
22775;BME280;11554;51.106;3.684;2023-08-07T16:50:00;101794.98;;;23.18;65.63
22775;BME280;11554;51.106;3.684;2023-08-07T16:55:00;101789.76;;;23.08;66.48
22775;BME280;11554;51.106;3.684;2023-08-07T17:00:00;101785.79;;;23.13;66.36
22775;BME280;11554;51.106;3.684;2023-08-07T17:05:00;101785.29999999999;;;23.06;65.85
22775;BME280;11554;51.106;3.684;2023-08-07T17:10:00;101780.62999999999;;;22.84;66.88
22775;BME280;11554;51.106;3.684;2023-08-07T17:15:00;101773.82;;;22.94;66.56
22775;BME280;11554;51.106;3.684;2023-08-07T17:20:00;101769.56;;;22.71;66.84
22775;BME280;11554;51.106;3.684;2023-08-07T17:25:00;101765.61;;;22.67;67.41
22775;BME280;11554;51.106;3.684;2023-08-07T17:30:00;101770.76;;;22.60;69.22
22775;BME280;11554;51.106;3.684;2023-08-07T17:35:00;101767.38;;;22.36;68.7
22775;BME280;11554;51.106;3.684;2023-08-07T17:40:00;101766.09999999999;;;22.16;69.05
22775;BME280;11554;51.106;3.684;2023-08-07T17:45:00;101760.16;;;21.87;69.47
22775;BME280;11554;51.106;3.684;2023-08-07T17:50:00;101759.2;;;21.44;70.58
22775;BME280;11554;51.106;3.684;2023-08-07T17:55:00;101760.99;;;21.04;71.69
22775;BME280;11554;51.106;3.684;2023-08-07T18:00:00;101758.72;;;20.84;72.7
22775;BME280;11554;51.106;3.684;2023-08-07T18:05:00;101752.51;;;20.57;73.73
22775;BME280;11554;51.106;3.684;2023-08-07T18:10:00;101759.75;;;20.43;74.44
22775;BME280;11554;51.106;3.684;2023-08-07T18:15:00;101760.08;;;20.18;75.49
22775;BME280;11554;51.106;3.684;2023-08-07T18:20:00;101757.03;;;19.95;75.84
22775;BME280;11554;51.106;3.684;2023-08-07T18:25:00;101757.12;;;19.73;76.6
22775;BME280;11554;51.106;3.684;2023-08-07T18:30:00;101751.48000000001;;;19.60;77.34
22775;BME280;11554;51.106;3.684;2023-08-07T18:35:00;101747.11;;;19.39;78.3
22775;BME280;11554;51.106;3.684;2023-08-07T18:40:00;101743.25;;;19.25;78.81
22775;BME280;11554;51.106;3.684;2023-08-07T18:45:00;101734.03;;;19.09;79.38
22775;BME280;11554;51.106;3.684;2023-08-07T18:50:00;101732.54;;;18.90;80.08
22775;BME280;11554;51.106;3.684;2023-08-07T18:55:00;101727.67;;;18.69;80.85
22775;BME280;11554;51.106;3.684;2023-08-07T19:00:00;101725.69;;;18.47;81.28
22775;BME280;11554;51.106;3.684;2023-08-07T19:05:00;101730.28;;;18.25;81.76
22775;BME280;11554;51.106;3.684;2023-08-07T19:10:00;101739.47;;;18.02;82.81
22775;BME280;11554;51.106;3.684;2023-08-07T19:15:01;101739.04;;;17.77;83.61
22775;BME280;11554;51.106;3.684;2023-08-07T19:20:00;101738.79;;;17.54;85.1
22775;BME280;11554;51.106;3.684;2023-08-07T19:25:00;101735.36;;;17.36;85.89
22775;BME280;11554;51.106;3.684;2023-08-07T19:30:00;101733.89;;;17.21;86.78
22775;BME280;11554;51.106;3.684;2023-08-07T19:40:00;101732.97;;;16.87;88.06
22775;BME280;11554;51.106;3.684;2023-08-07T19:45:00;101733.09000000001;;;16.75;90.03
22775;BME280;11554;51.106;3.684;2023-08-07T19:50:00;101727.01;;;16.63;91.5
22775;BME280;11554;51.106;3.684;2023-08-07T19:55:00;101717.28;;;16.54;92.68
22775;BME280;11554;51.106;3.684;2023-08-07T20:00:00;101717.17;;;16.46;93.34
22775;BME280;11554;51.106;3.684;2023-08-07T20:05:00;101721.46;;;16.37;94.02
22775;BME280;11554;51.106;3.684;2023-08-07T20:10:00;101714.09999999999;;;16.23;93.83
22775;BME280;11554;51.106;3.684;2023-08-07T20:15:00;101710.82;;;16.11;94.86
22775;BME280;11554;51.106;3.684;2023-08-07T20:20:00;101711.17;;;16.02;95.58
22775;BME280;11554;51.106;3.684;2023-08-07T20:25:00;101709.76000000001;;;15.90;96.2
22775;BME280;11554;51.106;3.684;2023-08-07T20:30:01;101703.2;;;15.77;96.71
22775;BME280;11554;51.106;3.684;2023-08-07T20:35:00;101703.52;;;15.66;96.71
22775;BME280;11554;51.106;3.684;2023-08-07T20:40:00;101697.83;;;15.53;96.94
22775;BME280;11554;51.106;3.684;2023-08-07T20:45:00;101697.11;;;15.39;98.0
22775;BME280;11554;51.106;3.684;2023-08-07T20:50:00;101695.09000000001;;;15.29;98.07
22775;BME280;11554;51.106;3.684;2023-08-07T20:55:00;101699.55;;;15.20;98.76
22775;BME280;11554;51.106;3.684;2023-08-07T21:00:00;101696.62;;;15.12;100.0
22775;BME280;11554;51.106;3.684;2023-08-07T21:05:00;101695.78;;;15.06;100.0
22775;BME280;11554;51.106;3.684;2023-08-07T21:10:00;101692.16;;;14.98;100.0
22775;BME280;11554;51.106;3.684;2023-08-07T21:15:00;101679.02;;;14.88;100.0
22775;BME280;11554;51.106;3.684;2023-08-07T21:20:00;101674.73;;;14.80;100.0
22775;BME280;11554;51.106;3.684;2023-08-07T21:25:00;101671.41;;;14.76;100.0
22775;BME280;11554;51.106;3.684;2023-08-07T21:30:00;101670.19;;;14.66;100.0
22775;BME280;11554;51.106;3.684;2023-08-07T21:35:00;101666.24;;;14.60;100.0
22775;BME280;11554;51.106;3.684;2023-08-07T21:40:00;101666.17;;;14.49;100.0
22775;BME280;11554;51.106;3.684;2023-08-07T21:45:00;101664.62;;;14.44;100.0
22775;BME280;11554;51.106;3.684;2023-08-07T21:50:00;101662.36;;;14.35;100.0
22775;BME280;11554;51.106;3.684;2023-08-07T21:55:00;101658.62;;;14.29;100.0
22775;BME280;11554;51.106;3.684;2023-08-07T22:00:00;101655.83;;;14.20;100.0
22775;BME280;11554;51.106;3.684;2023-08-07T22:05:00;101653.47;;;14.14;100.0
22775;BME280;11554;51.106;3.684;2023-08-07T22:10:00;101652.98;;;14.06;100.0
22775;BME280;11554;51.106;3.684;2023-08-07T22:15:01;101652.91;;;14.02;100.0
22775;BME280;11554;51.106;3.684;2023-08-07T22:20:00;101650.16;;;13.96;100.0
22775;BME280;11554;51.106;3.684;2023-08-07T22:25:00;101646.72;;;13.88;100.0
22775;BME280;11554;51.106;3.684;2023-08-07T22:30:00;101643.79000000001;;;13.82;100.0
22775;BME280;11554;51.106;3.684;2023-08-07T22:35:00;101643.69;;;13.75;100.0
22775;BME280;11554;51.106;3.684;2023-08-07T22:40:00;101641.25;;;13.70;100.0
22775;BME280;11554;51.106;3.684;2023-08-07T22:45:00;101644.56;;;13.64;100.0
22775;BME280;11554;51.106;3.684;2023-08-07T22:50:00;101637.77;;;13.62;100.0
22775;BME280;11554;51.106;3.684;2023-08-07T22:55:00;101635.65999999999;;;13.56;100.0
22775;BME280;11554;51.106;3.684;2023-08-07T23:00:00;101627.09;;;13.50;100.0
22775;BME280;11554;51.106;3.684;2023-08-07T23:05:00;101621.08;;;13.48;100.0
22775;BME280;11554;51.106;3.684;2023-08-07T23:10:00;101617.19;;;13.46;100.0
22775;BME280;11554;51.106;3.684;2023-08-07T23:15:00;101618.38;;;13.43;100.0
22775;BME280;11554;51.106;3.684;2023-08-07T23:20:00;101607.73000000001;;;13.41;100.0
22775;BME280;11554;51.106;3.684;2023-08-07T23:25:00;101602.81;;;13.38;100.0
22775;BME280;11554;51.106;3.684;2023-08-07T23:30:00;101593.73000000001;;;13.34;100.0
22775;BME280;11554;51.106;3.684;2023-08-07T23:35:00;101583.23000000001;;;13.34;100.0
22775;BME280;11554;51.106;3.684;2023-08-07T23:40:00;101580.54;;;13.35;100.0
22775;BME280;11554;51.106;3.684;2023-08-07T23:45:00;101585.25;;;13.39;100.0
22775;BME280;11554;51.106;3.684;2023-08-07T23:50:00;101588.57;;;13.38;100.0
22775;BME280;11554;51.106;3.684;2023-08-07T23:55:00;101585.85;;;13.36;100.0
